This is the latest recevied weather packets stored in our database for station/object JH1LWU-13. If no packets are shown the sender has not sent any weather packets the latest 10 day(s).
| Time | Temp. | Humidity | Pressure | Rain* | Wind** | Luminosity | Snow |
|---|---|---|---|---|---|---|---|
| 1787796966 | 30.56° C | 55% | 1007 hPa | - | - | - | - |
| 1787795165 | 30° C | 54% | 1007 hPa | - | - | - | - |
| 1787793364 | 29.44° C | 56% | 1008 hPa | - | - | - | - |
| 1787791563 | 28.89° C | 58% | 1007 hPa | - | - | - | - |
| 1787789762 | 27.22° C | 62% | 1007 hPa | - | - | - | - |
| 1787787961 | 27.78° C | 65% | 1007 hPa | - | - | - | - |
| 1787786160 | 25.56° C | 70% | 1005 hPa | - | - | - | - |
| 1787784359 | 25.56° C | 70% | 1005 hPa | - | - | - | - |
| 1787782558 | 25.56° C | 73% | 1007 hPa | - | - | - | - |
| 1787780757 | 27.22° C | 65% | 1006 hPa | - | - | - | - |
| 1787778956 | 27.22° C | 68% | 1007 hPa | - | - | - | - |
| 1787777155 | 26.67° C | 75% | 1007 hPa | - | - | - | - |
| 1787775354 | 27.22° C | 75% | 1007 hPa | - | - | - | - |
| 1787773553 | 27.78° C | 71% | 1007 hPa | - | - | - | - |
| 1787771752 | 27.78° C | 75% | 1006 hPa | - | - | - | - |
| 1787769951 | 27.22° C | 75% | 1005 hPa | - | - | - | - |
| 1787768150 | 27.78° C | 73% | 1005 hPa | - | - | - | - |
| 1787766349 | 27.78° C | 71% | 1005 hPa | - | - | - | - |
| 1787764548 | 28.33° C | 71% | 1005 hPa | - | - | - | - |
| 1787762747 | 28.33° C | 71% | 1006 hPa | - | - | - | - |
| 1787760946 | 29.44° C | 68% | 1005 hPa | - | - | - | - |
| 1787759145 | 30° C | 66% | 1005 hPa | - | - | - | - |
| 1787757344 | 30° C | 65% | 1006 hPa | - | - | - | - |
| 1787755543 | 30° C | 65% | 1006 hPa | - | - | - | - |
| 1787753742 | 30° C | 64% | 1005 hPa | - | - | - | - |
* Rain since midnight (hover to see other rain measurements)
** Current wind speed in m/s (hover to see current wind gust speed)